Más de esta sección

taf - aeronautica

                                                            

                                                          

                                                                  SANTO DOMINGO 08 DE DICIEMBRE 2022

                                                                  AEROP. INT. LAS AMERICAS JFPG-

FTDR31 MDSD 082200Z              

TAF

TAF MDPP 082200Z 0900/1000 082200Z 0900/1000 06008KT 9999 FEW018 PROB30 0900/0906 8000 RA BKN017 BECMG 0901/0903 00000KT=

TAF MDST 082200Z 0900/1000 30006KT 9999 BKN016 PROB30 0900/0906 7000 -RA BKN015 SCT080=

TAF MDPC 082200Z 0900/1000 35005KT 9999 SCT020 PROB30 0900/0906 8000 SHRA BKN014=

TAF MDBH 082200Z 0900/1000 13010KT 9999 FEW018 BECMG 0906/0908 36008KT=

TAF MDJB 082200Z 0900/1000 00000KT 9999 FEW018 BECMG 0916/0918 36010KT=

TAF MDSD 082200Z 0900/1000 36006KT 9999 SCT018 SCT080  PROB30 0900/0906 7000 -RA BKN016 SCT080 BECMG 0902/0904 02004KT=

TAF MDLR 082200Z 0900/1000 00000KT 9999 SCT018 BECMG 0912/0914 01010KT PROB30 7000 -SHRA BKN016 SCT070=   

TAF MDCY 082200Z 0900/1000 05008KT 9999 FEW018 PROB30 0901/0907 8000 SH SCT016 SCT070=

MDPP AEROPUERTO INTERNACIONAL LA UNION PUERTO PLATA

MDST AEROPUERTO INTERNACIONAL DE SANTIAGO

MDPC AEROPUERTO INTERNACIONAL PUNTA CANA

MDBH AEROPUERTO INTERNACIONAL DE BARAHONA

MDJB AEROPUERTO INTERNACIONAL JOAQUIN BALAGUER

MDSD AEROPUERTO INTERNACIONAL LAS AMERICAS

MDLR AEROPUERTO INTERNACIONAL LA ROMANA

MDCY AEROPUERTO INTERNACIONAL DE CATEY

JOSELINA NEPOMUCENO.

MDPP // A.SANDER

MDST // S.GONZALES

MDPC // ROSA INES

MDBH // N.ALCANTARA

MDJB // CAPELLAN

MDSD // JOSELINA

MDLR // BENITO.DE JESUS

MDCY // FLORENTINO